地図

経路データ

SID SEASON NUMBER BASIN SUBBASIN NAME ISO_TIME NATURE LAT LON WMO_WIND WMO_PRES WMO_AGENCY TRACK_TYPE DIST2LAND LANDFALL IFLAG USA_AGENCY USA_ATCF_ID USA_LAT USA_LON USA_RECORD USA_STATUS USA_WIND USA_PRES USA_SSHS USA_R34_NE USA_R34_SE USA_R34_SW USA_R34_NW USA_R50_NE USA_R50_SE USA_R50_SW USA_R50_NW USA_R64_NE USA_R64_SE USA_R64_SW USA_R64_NW USA_POCI USA_ROCI USA_RMW USA_EYE TOKYO_LAT TOKYO_LON TOKYO_GRADE TOKYO_WIND TOKYO_PRES TOKYO_R50_DIR TOKYO_R50_LONG TOKYO_R50_SHORT TOKYO_R30_DIR TOKYO_R30_LONG TOKYO_R30_SHORT TOKYO_LAND CMA_LAT CMA_LON CMA_CAT CMA_WIND CMA_PRES HKO_LAT HKO_LON HKO_CAT HKO_WIND HKO_PRES NEWDELHI_LAT NEWDELHI_LON NEWDELHI_GRADE NEWDELHI_WIND NEWDELHI_PRES NEWDELHI_CI NEWDELHI_DP NEWDELHI_POCI REUNION_LAT REUNION_LON REUNION_TYPE REUNION_WIND REUNION_PRES REUNION_TNUM REUNION_CI REUNION_RMW REUNION_R34_NE REUNION_R34_SE REUNION_R34_SW REUNION_R34_NW REUNION_R50_NE REUNION_R50_SE REUNION_R50_SW REUNION_R50_NW REUNION_R64_NE REUNION_R64_SE REUNION_R64_SW REUNION_R64_NW BOM_LAT BOM_LON BOM_TYPE BOM_WIND BOM_PRES BOM_TNUM BOM_CI BOM_RMW BOM_R34_NE BOM_R34_SE BOM_R34_SW BOM_R34_NW BOM_R50_NE BOM_R50_SE BOM_R50_SW BOM_R50_NW BOM_R64_NE BOM_R64_SE BOM_R64_SW BOM_R64_NW BOM_ROCI BOM_POCI BOM_EYE BOM_POS_METHOD BOM_PRES_METHOD NADI_LAT NADI_LON NADI_CAT NADI_WIND NADI_PRES WELLINGTON_LAT WELLINGTON_LON WELLINGTON_WIND WELLINGTON_PRES DS824_LAT DS824_LON DS824_STAGE DS824_WIND DS824_PRES TD9636_LAT TD9636_LON TD9636_STAGE TD9636_WIND TD9636_PRES TD9635_LAT TD9635_LON TD9635_WIND TD9635_PRES TD9635_ROCI NEUMANN_LAT NEUMANN_LON NEUMANN_CLASS NEUMANN_WIND NEUMANN_PRES MLC_LAT MLC_LON MLC_CLASS MLC_WIND MLC_PRES USA_GUST BOM_GUST BOM_GUST_PER REUNION_GUST REUNION_GUST_PER USA_SEAHGT USA_SEARAD_NE USA_SEARAD_SE USA_SEARAD_SW USA_SEARAD_NW STORM_SPEED STORM_DIR
1984083S16174 1984 29 SP MM NOT_NAMED 1984-03-23 00:00:00 NR -16.0000 174.000 30 997 wellington main 403 386 ________O_____ -1 -16.0000 174.000 30 997 8 53
1984083S16174 1984 29 SP MM NOT_NAMED 1984-03-23 03:00:00 NR -15.7538 174.338 main 386 373 ________P_____ -1 -15.7538 174.338 32 995 8 51
1984083S16174 1984 29 SP MM NOT_NAMED 1984-03-23 06:00:00 NR -15.4957 174.651 main 371 370 ________P_____ -1 -15.4957 174.651 35 993 8 46
1984083S16174 1984 29 SP MM NOT_NAMED 1984-03-23 09:00:00 NR -15.2148 174.913 main 378 370 ________P_____ -1 -15.2148 174.913 37 991 7 36
1984083S16174 1984 29 SP MM NOT_NAMED 1984-03-23 12:00:00 NR -14.9000 175.100 40 990 wellington main 387 387 ________O_____ -1 -14.9000 175.100 40 990 7 22
1984083S16174 1984 29 SP MM NOT_NAMED 1984-03-23 15:00:00 NR -14.5468 175.192 main 416 416 ________P_____ -1 -14.5468 175.192 40 990 7 7
1984083S16174 1984 29 SP MM NOT_NAMED 1984-03-23 18:00:00 NR -14.1770 175.187 main 443 443 ________P_____ -1 -14.1770 175.187 40 990 7 352
1984083S16174 1984 29 SP MM NOT_NAMED 1984-03-23 21:00:00 NR -13.8187 175.089 main 487 487 ________P_____ -1 -13.8187 175.089 40 990 7 337
1984083S16174 1984 29 SP MM NOT_NAMED 1984-03-24 00:00:00 NR -13.5000 174.900 40 990 wellington main 527 527 ________O_____ -1 -13.5000 174.900 40 990 8 320
1984083S16174 1984 29 SP MM NOT_NAMED 1984-03-24 03:00:00 NR -13.2412 174.599 main 573 573 ________P_____ -1 -13.2412 174.599 37 991 8 306
1984083S16174 1984 29 SP MM NOT_NAMED 1984-03-24 06:00:00 NR -13.0258 174.222 main 615 615 ________P_____ -1 -13.0258 174.222 35 993 8 298
1984083S16174 1984 29 SP MM NOT_NAMED 1984-03-24 09:00:00 NR -12.8474 173.834 main 659 659 ________P_____ -1 -12.8474 173.834 32 995 8 295
1984083S16174 1984 29 SP MM NOT_NAMED 1984-03-24 12:00:00 NR -12.7000 173.500 30 997 wellington main 687 687 ________O_____ -1 -12.7000 173.500 30 997 6 296
1984083S16174 1984 29 SP MM NOT_NAMED 1984-03-24 15:00:00 NR -12.5791 173.270 main 710 706 ________P_____ -1 -12.5791 173.270 30 997 4 299
1984083S16174 1984 29 SP MM NOT_NAMED 1984-03-24 18:00:00 NR -12.4847 173.108 main 706 700 ________P_____ -1 -12.4847 173.108 30 997 3 306
1984083S16174 1984 29 SP MM NOT_NAMED 1984-03-24 21:00:00 NR -12.3979 173.017 main 700 700 ________P_____ -1 -12.3979 173.017 30 997 2 330
1984083S16174 1984 29 SP MM NOT_NAMED 1984-03-25 00:00:00 NR -12.3000 173.000 30 997 wellington main 705 705 ________O_____ -1 -12.3000 173.000 30 997 2 8
1984083S16174 1984 29 SP MM NOT_NAMED 1984-03-25 03:00:00 NR -12.1563 173.053 main 720 720 ________P_____ -1 -12.1563 173.053 30 997 3 30
1984083S16174 1984 29 SP MM NOT_NAMED 1984-03-25 06:00:00 NR -12.0000 173.175 main 740 740 ________P_____ -1 -12.0000 173.175 30 997 4 41
1984083S16174 1984 29 SP MM NOT_NAMED 1984-03-25 09:00:00 NR -11.8438 173.335 main 760 760 ________P_____ -1 -11.8438 173.335 30 997 4 47
1984083S16174 1984 29 SP MM NOT_NAMED 1984-03-25 12:00:00 NR -11.7000 173.500 30 997 wellington main 777 777 ________O_____ -1 -11.7000 173.500 30 997 4 47
1984083S16174 1984 29 SP MM NOT_NAMED 1984-03-25 15:00:00 NR -11.5937 173.613 main 777 770 ________P_____ -1 -11.5937 173.613 30 997 3 48
1984083S16174 1984 29 SP MM NOT_NAMED 1984-03-25 18:00:00 NR -11.4999 173.727 main 779 771 ________P_____ -1 -11.4999 173.727 30 997 3 52
1984083S16174 1984 29 SP MM NOT_NAMED 1984-03-25 21:00:00 NR -11.4062 173.853 main 773 773 ________P_____ -1 -11.4062 173.853 30 997 3 53
1984083S16174 1984 29 SP MM NOT_NAMED 1984-03-26 00:00:00 NR -11.3000 174.000 30 997 wellington main 775 775 ________O_____ -1 -11.3000 174.000 30 997 4 48
1984083S16174 1984 29 SP MM NOT_NAMED 1984-03-26 03:00:00 NR -11.1479 174.146 main 786 780 ________P_____ -1 -11.1479 174.146 30 997 4 45
1984083S16174 1984 29 SP MM NOT_NAMED 1984-03-26 06:00:00 NR -10.9847 174.318 main 782 779 ________P_____ -1 -10.9847 174.318 30 997 5 50
1984083S16174 1984 29 SP MM NOT_NAMED 1984-03-26 09:00:00 NR -10.8291 174.530 main 789 777 ________P_____ -1 -10.8291 174.530 30 997 6 59
1984083S16174 1984 29 SP MM NOT_NAMED 1984-03-26 12:00:00 NR -10.7000 174.800 30 997 wellington main 781 770 ________O_____ -1 -10.7000 174.800 30 997 6 70
1984083S16174 1984 29 SP MM NOT_NAMED 1984-03-26 15:00:00 NR -10.6133 175.143 main 775 755 ________P_____ -1 -10.6133 175.143 30 997 7 79
1984083S16174 1984 29 SP MM NOT_NAMED 1984-03-26 18:00:00 NR -10.5552 175.540 main 755 748 ________P_____ -1 -10.5552 175.540 30 997 8 83
1984083S16174 1984 29 SP MM NOT_NAMED 1984-03-26 21:00:00 NR -10.5195 175.968 main 744 728 ________P_____ -1 -10.5195 175.968 30 997 8 86
1984083S16174 1984 29 SP MM NOT_NAMED 1984-03-27 00:00:00 NR -10.5000 176.400 30 997 wellington main 728 712 ________O_____ -1 -10.5000 176.400 30 997 8 88
1984083S16174 1984 29 SP MM NOT_NAMED 1984-03-27 03:00:00 NR -10.4852 176.776 main 712 699 ________P_____ -1 -10.4852 176.776 30 997 7 89
1984083S16174 1984 29 SP MM NOT_NAMED 1984-03-27 06:00:00 NR -10.4844 177.155 main 695 684 ________P_____ -1 -10.4844 177.155 30 997 8 90
1984083S16174 1984 29 SP MM NOT_NAMED 1984-03-27 09:00:00 NR -10.4914 177.557 main 681 667 ________P_____ -1 -10.4914 177.557 30 997 8 91
1984083S16174 1984 29 SP MM NOT_NAMED 1984-03-27 12:00:00 NR -10.5000 178.000 30 997 wellington main 667 653 ________O_____ -1 -10.5000 178.000 30 997 10 88
1984083S16174 1984 29 SP MM NOT_NAMED 1984-03-27 15:00:00 NR -10.4598 178.544 main 653 649 ________P_____ -1 -10.4598 178.544 30 997 11 86
1984083S16174 1984 29 SP MM NOT_NAMED 1984-03-27 18:00:00 NR -10.4256 179.123 main 653 649 ________P_____ -1 -10.4256 179.123 30 997 11 88
1984083S16174 1984 29 SP MM NOT_NAMED 1984-03-27 21:00:00 NR -10.4286 179.691 main 649 638 ________P_____ -1 -10.4286 179.691 30 997 11 94
1984083S16174 1984 29 SP MM NOT_NAMED 1984-03-28 00:00:00 NR -10.5000 180.200 30 997 wellington main 639 619 ________O_____ -1 -10.5000 -179.800 30 997 9 106
1984083S16174 1984 29 SP MM NOT_NAMED 1984-03-28 03:00:00 NR -10.6775 180.581 main 620 601 ________P_____ -1 -10.6775 -179.419 30 997 8 122
1984083S16174 1984 29 SP MM NOT_NAMED 1984-03-28 06:00:00 NR -10.9242 180.902 main 603 574 ________P_____ -1 -10.9242 -179.098 30 997 8 131
1984083S16174 1984 29 SP MM NOT_NAMED 1984-03-28 09:00:00 NR -11.2089 181.197 main 577 550 ________P_____ -1 -11.2089 -178.803 30 997 8 134
1984083S16174 1984 29 SP MM NOT_NAMED 1984-03-28 12:00:00 NR -11.5000 181.500 30 997 wellington main 553 539 ________O_____ -1 -11.5000 -178.500 30 997 9 129
1984083S16174 1984 29 SP MM NOT_NAMED 1984-03-28 15:00:00 NR -11.7419 181.869 main 548 531 ________P_____ -1 -11.7419 -178.131 32 995 9 123
1984083S16174 1984 29 SP MM NOT_NAMED 1984-03-28 18:00:00 NR -11.9850 182.250 main 536 519 ________P_____ -1 -11.9850 -177.750 35 993 9 124
1984083S16174 1984 29 SP MM NOT_NAMED 1984-03-28 21:00:00 NR -12.2356 182.631 main 519 468 ________P_____ -1 -12.2356 -177.369 37 991 9 125
1984083S16174 1984 29 SP MM NOT_NAMED 1984-03-29 00:00:00 NR -12.5000 183.000 40 990 wellington main 468 429 ________O_____ -1 -12.5000 -177.000 40 990 9 129
1984083S16174 1984 29 SP MM NOT_NAMED 1984-03-29 03:00:00 NR -12.7895 183.344 main 429 381 ________P_____ -1 -12.7895 -176.656 40 990 9 132
1984083S16174 1984 29 SP MM NOT_NAMED 1984-03-29 06:00:00 NR -13.0923 183.673 main 381 346 ________P_____ -1 -13.0923 -176.327 40 990 9 134
1984083S16174 1984 29 SP MM NOT_NAMED 1984-03-29 09:00:00 NR -13.3989 183.990 main 346 314 ________P_____ -1 -13.3989 -176.010 40 990 9 135
1984083S16174 1984 29 SP MM NOT_NAMED 1984-03-29 12:00:00 NR -13.7000 184.300 40 990 wellington main 314 284 ________O_____ -1 -13.7000 -175.700 40 990 8 132
1984083S16174 1984 29 SP MM NOT_NAMED 1984-03-29 15:00:00 NR -13.9210 184.596 main 284 257 ________P_____ -1 -13.9210 -175.404 38 991 7 128
1984083S16174 1984 29 SP MM NOT_NAMED 1984-03-29 18:00:00 NR -14.1447 184.887 main 257 238 ________P_____ -1 -14.1447 -175.113 37 992 8 131
1984083S16174 1984 29 SP MM NOT_NAMED 1984-03-29 21:00:00 NR -14.4210 185.184 main 238 230 ________P_____ -1 -14.4210 -174.816 36 993 9 138
1984083S16174 1984 29 SP MM NOT_NAMED 1984-03-30 00:00:00 NR -14.8000 185.500 35 995 wellington main 233 227 ________O_____ -1 -14.8000 -174.500 35 995 11 144
1984083S16174 1984 29 SP MM NOT_NAMED 1984-03-30 03:00:00 NR -15.3169 185.844 main 240 232 ________P_____ -1 -15.3169 -174.156 33 995 13 149
1984083S16174 1984 29 SP MM NOT_NAMED 1984-03-30 06:00:00 NR -15.9482 186.214 main 268 268 ________P_____ -1 -15.9482 -173.786 32 996 15 151
1984083S16174 1984 29 SP MM NOT_NAMED 1984-03-30 09:00:00 NR -16.6555 186.602 main 335 335 ________P_____ -1 -16.6555 -173.398 31 996 16 153
1984083S16174 1984 29 SP MM NOT_NAMED 1984-03-30 12:00:00 NR -17.4000 187.000 30 997 wellington main 405 ________O_____ -1 -17.4000 -173.000 30 997 17 153

デジタル台風データ・検索

IBTrACS Databaseについて

本データベースは、米国NOAAが公開する1842年以降の世界の熱帯低気圧のベストトラックデータアーカイブInternational Best Track Archive for Climate Stewardship (IBTrACS)を、ウェブで閲覧しやすい形式に変換したものです。

最終更新日:2021-11-26